Time;durP1;ratioP1;P1;durP2;ratioP2;P2;SDS_P1;SDS_P2;PMS_P1;PMS_P2;Temp;Humidity;BMP_temperature;BMP_pressure;BME280_temperature;BME280_humidity;BME280_pressure;Samples;Min_cycle;Max_cycle;Signal;HPM_P1;HPM_P2
2023/07/23 00:01:34;;;;;;;8.80;1.63;;;17.80;84.90;;;;;;5069641;28;20350;-79
2023/07/23 00:04:00;;;;;;;3.10;1.10;;;17.80;85.20;;;;;;5078289;28;20209;-81
2023/07/23 00:06:25;;;;;;;3.40;1.37;;;17.70;85.20;;;;;;5070476;28;20181;-81
2023/07/23 00:08:51;;;;;;;3.83;1.40;;;17.70;85.80;;;;;;5060395;28;20193;-80
2023/07/23 00:11:17;;;;;;;4.53;1.73;;;17.70;85.10;;;;;;5077945;28;20188;-80
2023/07/23 00:13:42;;;;;;;4.10;1.57;;;17.70;86.10;;;;;;5077585;28;20758;-81
2023/07/23 00:16:08;;;;;;;3.33;1.60;;;17.70;85.40;;;;;;5078091;28;20189;-80
2023/07/23 00:18:34;;;;;;;3.90;1.60;;;17.70;85.90;;;;;;5077849;28;20552;-79
2023/07/23 00:20:59;;;;;;;2.13;0.83;;;17.70;85.60;;;;;;5077290;28;20432;-80
2023/07/23 00:23:25;;;;;;;2.40;1.00;;;17.60;85.60;;;;;;5077044;28;20318;-81
2023/07/23 00:25:50;;;;;;;3.20;1.00;;;17.70;85.90;;;;;;5077251;28;20205;-80
2023/07/23 00:28:16;;;;;;;4.30;1.70;;;17.70;85.40;;;;;;5077887;28;20193;-80
2023/07/23 00:30:41;;;;;;;3.00;1.60;;;17.60;85.40;;;;;;5077865;28;20195;-80
2023/07/23 00:33:07;;;;;;;4.63;1.87;;;17.60;85.70;;;;;;5076973;28;20296;-80
2023/07/23 00:35:33;;;;;;;2.80;1.20;;;17.50;85.80;;;;;;5076595;28;20201;-81
2023/07/23 00:37:58;;;;;;;2.10;0.97;;;17.50;86.10;;;;;;5077375;28;20256;-80
2023/07/23 00:40:24;;;;;;;3.87;1.87;;;17.50;86.00;;;;;;5078220;28;20177;-80
2023/07/23 00:42:49;;;;;;;3.23;1.53;;;17.50;86.40;;;;;;5077270;28;20185;-81
2023/07/23 00:45:15;;;;;;;4.37;1.63;;;17.50;86.00;;;;;;5077070;28;20259;-80
2023/07/23 00:47:42;;;;;;;6.17;1.63;;;17.50;86.50;;;;;;5077321;28;20189;-80
2023/07/23 00:50:09;;;;;;;4.60;1.60;;;17.40;86.30;;;;;;5077331;28;20184;-81
2023/07/23 00:52:35;;;;;;;2.90;1.50;;;17.50;86.20;;;;;;5076988;28;20459;-81
2023/07/23 00:55:02;;;;;;;3.60;1.90;;;17.50;86.20;;;;;;5076539;28;20443;-81
2023/07/23 00:57:28;;;;;;;3.13;1.20;;;17.40;86.40;;;;;;5057460;28;20450;-81
2023/07/23 00:59:56;;;;;;;3.53;1.43;;;17.40;86.60;;;;;;5067220;28;20419;-79
2023/07/23 01:02:23;;;;;;;3.10;1.57;;;17.40;86.60;;;;;;5076847;28;20177;-80
2023/07/23 01:04:48;;;;;;;4.23;1.80;;;17.40;86.50;;;;;;5076130;28;20471;-80
2023/07/23 01:07:15;;;;;;;3.40;1.33;;;17.40;86.40;;;;;;5074728;28;20414;-80
2023/07/23 01:09:41;;;;;;;3.40;1.40;;;17.40;86.60;;;;;;5068425;28;20247;-80
2023/07/23 01:12:08;;;;;;;2.23;1.27;;;17.40;86.60;;;;;;5077143;28;20463;-80
2023/07/23 01:14:34;;;;;;;2.80;1.43;;;17.40;86.60;;;;;;5057956;28;21078;-80
2023/07/23 01:17:00;;;;;;;3.93;1.90;;;17.30;86.90;;;;;;5072222;28;20419;-80
2023/07/23 01:19:26;;;;;;;3.57;1.30;;;17.30;86.90;;;;;;5058840;28;20544;-80
2023/07/23 01:22:05;;;;;;;3.10;1.27;;;17.30;87.20;;;;;;5074472;28;20865;-81
2023/07/23 01:24:30;;;;;;;3.07;1.43;;;17.30;87.00;;;;;;5068653;28;20535;-80
2023/07/23 01:26:56;;;;;;;4.37;1.90;;;17.30;86.70;;;;;;5073505;28;20496;-81
2023/07/23 01:29:22;;;;;;;6.87;1.50;;;17.30;86.80;;;;;;5076077;28;20194;-80
2023/07/23 01:31:47;;;;;;;3.87;2.07;;;17.30;86.80;;;;;;5076870;28;20234;-80
2023/07/23 01:34:13;;;;;;;4.07;1.67;;;17.20;86.70;;;;;;5074038;28;20193;-80
2023/07/23 01:36:40;;;;;;;2.83;1.80;;;17.20;86.80;;;;;;5076271;28;20598;-80
2023/07/23 01:39:05;;;;;;;2.47;1.27;;;17.20;87.50;;;;;;5074890;28;20760;-78
2023/07/23 01:41:31;;;;;;;3.03;1.60;;;17.20;87.10;;;;;;5076608;28;20426;-81
2023/07/23 01:43:58;;;;;;;4.73;2.03;;;17.20;87.30;;;;;;5075604;28;20205;-79
2023/07/23 01:46:24;;;;;;;4.33;1.50;;;17.10;87.90;;;;;;5057324;28;20192;-80
2023/07/23 01:48:49;;;;;;;2.33;1.20;;;17.00;88.20;;;;;;5076427;28;20419;-79
2023/07/23 01:51:15;;;;;;;5.20;1.80;;;16.90;89.00;;;;;;5076275;28;20185;-79
2023/07/23 01:53:41;;;;;;;3.83;1.27;;;16.80;89.60;;;;;;5076104;28;20300;-80
2023/07/23 01:56:06;;;;;;;2.47;1.00;;;16.60;90.10;;;;;;5076700;28;20699;-80
2023/07/23 01:58:32;;;;;;;3.60;1.10;;;16.50;90.30;;;;;;5068697;28;20216;-80
2023/07/23 02:01:03;;;;;;;5.77;1.93;;;16.40;90.70;;;;;;5075328;28;20185;-81
2023/07/23 02:03:29;;;;;;;4.23;2.00;;;16.30;90.90;;;;;;5076501;28;20638;-79
2023/07/23 02:05:59;;;;;;;5.83;1.53;;;16.20;91.10;;;;;;5054714;28;21076;-79
2023/07/23 02:08:24;;;;;;;2.87;1.30;;;16.20;90.90;;;;;;5070976;28;20518;-79
2023/07/23 02:10:50;;;;;;;4.50;1.63;;;16.40;90.40;;;;;;5076389;28;20488;-80
2023/07/23 02:13:16;;;;;;;5.20;1.60;;;16.50;90.10;;;;;;5057695;28;20661;-76
2023/07/23 02:15:41;;;;;;;2.57;1.20;;;16.60;90.10;;;;;;5076768;28;20657;-80
2023/07/23 02:18:07;;;;;;;4.77;1.30;;;16.70;89.60;;;;;;5075766;28;20584;-79
2023/07/23 02:20:33;;;;;;;9.40;2.87;;;16.80;89.10;;;;;;5075558;28;20188;-79
2023/07/23 02:22:58;;;;;;;3.87;1.70;;;16.80;89.10;;;;;;5068393;28;20272;-80
2023/07/23 02:25:24;;;;;;;2.80;1.60;;;16.80;89.40;;;;;;5070759;28;20228;-80
2023/07/23 02:27:50;;;;;;;3.00;1.50;;;16.90;89.20;;;;;;5068893;28;20181;-80
2023/07/23 02:30:15;;;;;;;5.00;1.20;;;16.80;89.40;;;;;;5073530;28;20555;-79
2023/07/23 02:32:41;;;;;;;2.73;1.40;;;16.80;89.40;;;;;;5076019;28;20201;-81
2023/07/23 02:35:07;;;;;;;4.33;1.40;;;16.80;89.50;;;;;;5068556;28;20220;-79
2023/07/23 02:37:33;;;;;;;5.53;1.47;;;16.80;89.60;;;;;;5066340;28;20174;-80
2023/07/23 02:39:58;;;;;;;4.30;1.90;;;16.80;89.10;;;;;;5072149;28;20795;-80
2023/07/23 02:42:24;;;;;;;2.97;1.30;;;16.70;89.80;;;;;;5074632;28;20173;-80
2023/07/23 02:44:50;;;;;;;3.17;1.33;;;16.70;90.00;;;;;;5074559;28;20204;-80
2023/07/23 02:47:15;;;;;;;3.63;1.50;;;16.60;90.10;;;;;;5079221;28;20207;-79
2023/07/23 02:49:41;;;;;;;3.37;1.30;;;16.60;90.00;;;;;;5079579;28;20185;-80
2023/07/23 02:52:06;;;;;;;3.83;1.93;;;16.50;90.30;;;;;;5079728;28;20604;-80
2023/07/23 02:54:33;;;;;;;6.63;2.07;;;16.50;90.40;;;;;;5078519;28;20216;-80
2023/07/23 02:56:59;;;;;;;3.10;1.80;;;16.40;90.20;;;;;;5079527;28;20197;-79
2023/07/23 02:59:24;;;;;;;2.27;1.60;;;16.40;90.30;;;;;;5071398;28;20434;-80
2023/07/23 03:01:50;;;;;;;3.30;1.30;;;16.30;90.50;;;;;;5071197;28;20293;-79
2023/07/23 03:04:15;;;;;;;3.60;1.80;;;16.30;90.60;;;;;;5063331;28;20205;-80
2023/07/23 03:06:41;;;;;;;3.10;1.40;;;16.20;90.80;;;;;;5071088;28;20197;-80
2023/07/23 03:09:06;;;;;;;2.90;1.53;;;16.20;90.80;;;;;;5079043;28;20211;-80
2023/07/23 03:11:32;;;;;;;6.70;2.00;;;16.20;90.90;;;;;;5080147;28;20216;-81
2023/07/23 03:13:58;;;;;;;3.73;2.03;;;16.10;91.00;;;;;;5078567;28;20742;-80
2023/07/23 03:16:23;;;;;;;2.27;1.20;;;16.10;91.20;;;;;;5087182;28;20185;-80
2023/07/23 03:18:49;;;;;;;9.83;2.10;;;16.00;91.10;;;;;;5094266;28;20189;-80
2023/07/23 03:21:14;;;;;;;3.90;1.77;;;16.10;91.20;;;;;;5080400;28;20189;-80
2023/07/23 03:23:40;;;;;;;3.00;1.47;;;16.10;91.20;;;;;;5075351;28;20263;-80
2023/07/23 03:26:06;;;;;;;2.90;1.53;;;16.10;91.20;;;;;;5076037;28;20189;-80
2023/07/23 03:28:31;;;;;;;3.10;1.57;;;16.10;91.20;;;;;;5075734;28;20506;-80
2023/07/23 03:30:58;;;;;;;7.13;2.60;;;16.10;91.20;;;;;;5076606;28;20671;-79
2023/07/23 03:33:23;;;;;;;4.13;1.70;;;16.10;91.20;;;;;;5076338;28;20735;-80
2023/07/23 03:35:49;;;;;;;3.50;1.50;;;16.00;91.30;;;;;;5075760;28;20443;-80
2023/07/23 03:38:14;;;;;;;4.80;1.47;;;15.90;91.60;;;;;;5078638;28;20181;-81
2023/07/23 03:40:40;;;;;;;3.37;1.40;;;15.90;91.70;;;;;;5087031;28;20252;-80
2023/07/23 03:43:06;;;;;;;3.50;1.50;;;15.90;91.70;;;;;;5097220;28;20184;-80
2023/07/23 03:45:31;;;;;;;2.43;1.50;;;16.00;91.90;;;;;;5087161;28;20189;-80
2023/07/23 03:47:57;;;;;;;3.73;1.70;;;15.90;92.00;;;;;;5085533;28;20181;-81
2023/07/23 03:50:23;;;;;;;26.73;2.20;;;15.90;91.90;;;;;;5089345;28;20229;-80
2023/07/23 03:52:49;;;;;;;4.00;1.70;;;15.90;92.10;;;;;;5072208;28;20221;-80
2023/07/23 03:55:14;;;;;;;2.40;1.20;;;15.90;92.10;;;;;;5068913;28;20998;-79
2023/07/23 03:57:40;;;;;;;1.87;0.87;;;16.00;92.00;;;;;;5072685;28;20311;-80
2023/07/23 04:00:06;;;;;;;2.97;1.60;;;16.00;92.20;;;;;;5070572;28;20177;-80
2023/07/23 04:02:32;;;;;;;3.53;2.27;;;16.00;92.00;;;;;;5078863;28;20196;-80
2023/07/23 04:04:57;;;;;;;2.63;1.43;;;16.00;92.10;;;;;;5071087;28;20740;-80
2023/07/23 04:07:23;;;;;;;4.30;2.03;;;16.10;92.00;;;;;;5068268;28;20208;-80
2023/07/23 04:09:48;;;;;;;5.40;1.93;;;16.10;91.90;;;;;;5077466;28;20270;-80
2023/07/23 04:12:14;;;;;;;3.40;1.40;;;16.20;92.10;;;;;;5076956;28;20208;-80
2023/07/23 04:14:43;;;;;;;2.90;1.30;;;16.20;92.00;;;;;;5076085;28;20201;-80
2023/07/23 04:17:09;;;;;;;5.10;1.67;;;16.20;92.00;;;;;;5077002;28;20200;-80
2023/07/23 04:19:36;;;;;;;6.90;1.70;;;16.20;91.80;;;;;;5077058;28;20423;-80
2023/07/23 04:22:03;;;;;;;2.63;1.60;;;16.30;92.00;;;;;;5075148;28;20439;-80
2023/07/23 04:24:29;;;;;;;3.73;1.70;;;16.30;92.20;;;;;;5078416;28;20804;-80
2023/07/23 04:26:54;;;;;;;3.53;1.60;;;16.30;92.10;;;;;;5077563;28;20557;-80
2023/07/23 04:29:20;;;;;;;3.70;2.00;;;16.30;92.20;;;;;;5078154;28;20205;-81
2023/07/23 04:31:46;;;;;;;2.27;1.20;;;16.30;92.60;;;;;;5077133;28;20181;-80
2023/07/23 04:34:11;;;;;;;3.00;1.57;;;16.30;92.00;;;;;;5076466;28;20205;-80
2023/07/23 04:36:37;;;;;;;8.23;1.90;;;16.30;92.30;;;;;;5074965;28;20184;-80
2023/07/23 04:39:03;;;;;;;3.50;1.37;;;16.40;92.00;;;;;;5077011;28;20715;-77
2023/07/23 04:41:29;;;;;;;3.60;1.40;;;16.40;92.20;;;;;;5073785;28;20517;-77
2023/07/23 04:43:55;;;;;;;7.53;1.30;;;16.40;92.50;;;;;;5063746;28;20440;-77
2023/07/23 04:46:21;;;;;;;3.77;1.77;;;16.50;92.00;;;;;;5070044;28;20426;-77
2023/07/23 04:48:47;;;;;;;3.20;1.87;;;16.50;92.20;;;;;;5067511;28;20506;-78
2023/07/23 04:51:12;;;;;;;2.23;1.27;;;16.50;92.30;;;;;;5068838;28;20185;-79
2023/07/23 04:53:38;;;;;;;2.23;1.30;;;16.50;92.10;;;;;;5075476;28;20205;-79
2023/07/23 04:56:05;;;;;;;3.33;1.53;;;16.60;92.00;;;;;;5076420;28;20200;-79
2023/07/23 04:58:31;;;;;;;3.00;1.43;;;16.60;92.10;;;;;;5069483;28;20573;-79
2023/07/23 05:00:58;;;;;;;2.87;1.40;;;16.60;91.90;;;;;;5074558;28;20438;-79
2023/07/23 05:03:24;;;;;;;2.43;1.17;;;16.70;91.80;;;;;;5075001;28;20501;-79
2023/07/23 05:05:51;;;;;;;3.80;1.63;;;16.70;92.00;;;;;;5074236;28;20493;-78
2023/07/23 05:08:21;;;;;;;4.00;1.60;;;16.80;92.10;;;;;;5068056;28;20182;-79
2023/07/23 05:10:47;;;;;;;5.23;1.40;;;16.80;91.80;;;;;;5073390;28;21022;-78
2023/07/23 05:13:14;;;;;;;2.77;1.30;;;16.90;92.30;;;;;;5055379;28;20469;-79
2023/07/23 05:15:41;;;;;;;2.20;1.03;;;16.90;91.80;;;;;;5071514;28;20443;-79
2023/07/23 05:18:06;;;;;;;3.90;1.70;;;16.90;91.90;;;;;;5071114;28;21013;-78
2023/07/23 05:20:32;;;;;;;5.73;2.03;;;16.90;92.10;;;;;;5072500;28;20415;-78
2023/07/23 05:22:58;;;;;;;2.13;1.13;;;17.00;91.80;;;;;;5071125;28;20189;-78
2023/07/23 05:25:23;;;;;;;1.90;0.90;;;17.00;92.00;;;;;;5073775;28;20691;-79
2023/07/23 05:27:49;;;;;;;2.50;1.23;;;17.10;91.90;;;;;;5071932;28;20188;-80
2023/07/23 05:30:16;;;;;;;4.80;1.70;;;17.20;91.80;;;;;;5051401;28;20201;-80
2023/07/23 05:32:42;;;;;;;2.50;1.23;;;17.30;91.60;;;;;;5053484;28;20290;-79
2023/07/23 05:35:08;;;;;;;5.27;1.93;;;17.30;91.70;;;;;;5067340;28;20466;-79
2023/07/23 05:37:34;;;;;;;2.53;1.50;;;17.50;91.40;;;;;;5056250;28;20954;-79
2023/07/23 05:39:59;;;;;;;2.60;1.20;;;17.60;91.30;;;;;;5070924;28;20423;-79
2023/07/23 05:42:25;;;;;;;4.53;1.80;;;17.70;91.20;;;;;;5059386;28;20173;-79
2023/07/23 05:44:50;;;;;;;3.27;1.37;;;17.70;91.10;;;;;;5068830;28;20204;-79
2023/07/23 05:47:16;;;;;;;3.23;1.27;;;17.80;91.10;;;;;;5071283;28;20192;-79
2023/07/23 05:49:41;;;;;;;3.90;1.40;;;17.90;90.80;;;;;;5063507;28;20181;-79
2023/07/23 05:52:07;;;;;;;2.90;1.27;;;18.00;90.50;;;;;;5051538;28;20219;-79
2023/07/23 05:54:33;;;;;;;1.90;0.97;;;18.10;90.80;;;;;;5050108;28;20280;-78
2023/07/23 05:56:59;;;;;;;2.47;1.10;;;18.10;91.20;;;;;;5053415;28;20250;-80
2023/07/23 05:59:25;;;;;;;2.40;1.20;;;18.30;90.60;;;;;;5058960;28;20587;-79
2023/07/23 06:01:51;;;;;;;5.57;2.17;;;18.40;90.50;;;;;;5063823;28;20411;-79
2023/07/23 06:04:17;;;;;;;2.57;1.03;;;18.50;90.50;;;;;;5052890;28;20523;-79
2023/07/23 06:06:43;;;;;;;2.50;1.40;;;18.70;90.10;;;;;;5062622;28;20507;-80
2023/07/23 06:09:09;;;;;;;2.97;1.30;;;19.00;89.70;;;;;;5069797;28;20235;-79
2023/07/23 06:11:35;;;;;;;2.60;1.17;;;19.20;90.00;;;;;;5067480;28;20234;-80
2023/07/23 06:14:01;;;;;;;2.37;1.27;;;19.40;89.40;;;;;;5068954;28;20475;-80
2023/07/23 06:16:26;;;;;;;2.80;1.20;;;19.50;88.70;;;;;;5066697;28;20271;-79
2023/07/23 06:18:52;;;;;;;3.10;1.47;;;19.70;87.40;;;;;;5070753;28;20207;-80
2023/07/23 06:21:17;;;;;;;2.10;1.30;;;19.80;86.80;;;;;;5071737;28;20189;-80
2023/07/23 06:23:43;;;;;;;2.83;1.33;;;19.80;86.90;;;;;;5073497;28;20602;-79
2023/07/23 06:26:09;;;;;;;3.57;1.77;;;19.90;86.90;;;;;;5066936;28;20201;-80
2023/07/23 06:28:34;;;;;;;3.13;1.63;;;19.80;87.80;;;;;;5076197;28;20196;-80
2023/07/23 06:31:00;;;;;;;4.03;1.70;;;20.00;86.80;;;;;;5076322;28;20197;-80
2023/07/23 06:33:27;;;;;;;3.13;1.20;;;20.00;87.00;;;;;;5074122;28;20267;-80
2023/07/23 06:35:53;;;;;;;3.00;1.27;;;20.00;86.70;;;;;;5064608;28;20208;-80
2023/07/23 06:38:19;;;;;;;3.47;1.60;;;20.00;87.50;;;;;;5078096;28;20458;-80
2023/07/23 06:40:51;;;;;;;3.30;1.63;;;20.00;87.70;;;;;;5079191;28;20216;-80
2023/07/23 06:43:22;;;;;;;2.63;1.47;;;20.00;86.70;;;;;;5077373;28;20911;-80
2023/07/23 06:45:49;;;;;;;3.30;1.73;;;20.00;87.10;;;;;;5070623;28;20438;-80
2023/07/23 06:48:17;;;;;;;2.80;1.30;;;20.10;87.20;;;;;;5068608;28;20441;-80
2023/07/23 06:50:46;;;;;;;3.10;1.57;;;20.00;87.50;;;;;;5072537;28;20454;-81
2023/07/23 06:53:12;;;;;;;4.00;1.00;;;20.10;87.70;;;;;;5076230;28;20454;-77
2023/07/23 06:55:58;;;;;;;2.20;1.30;;;20.40;87.10;;;;;;5077110;28;20439;-80
2023/07/23 06:58:24;;;;;;;3.37;1.40;;;20.40;86.30;;;;;;5060212;28;20454;-81
2023/07/23 07:00:49;;;;;;;2.63;1.27;;;20.40;86.60;;;;;;5074454;28;20501;-80
2023/07/23 07:03:15;;;;;;;3.00;1.60;;;20.40;86.30;;;;;;5073548;28;20189;-79
2023/07/23 07:05:40;;;;;;;2.73;1.43;;;20.40;86.80;;;;;;5076146;28;20633;-82
2023/07/23 07:08:06;;;;;;;3.43;1.27;;;20.60;87.50;;;;;;5073865;28;20177;-81
2023/07/23 07:10:32;;;;;;;3.00;1.47;;;20.80;86.50;;;;;;5069947;28;20189;-81
2023/07/23 07:12:57;;;;;;;2.33;1.27;;;21.10;84.80;;;;;;5077318;28;20212;-81
2023/07/23 07:15:23;;;;;;;3.43;1.30;;;21.20;84.70;;;;;;5072643;28;20262;-82
2023/07/23 07:17:48;;;;;;;4.50;1.70;;;21.40;84.20;;;;;;5078310;28;20196;-81
2023/07/23 07:20:14;;;;;;;3.57;1.73;;;21.50;83.60;;;;;;5079546;28;20181;-80
2023/07/23 07:22:40;;;;;;;2.10;1.00;;;21.70;83.10;;;;;;5082006;28;20189;-80
2023/07/23 07:25:06;;;;;;;2.77;1.50;;;22.00;83.50;;;;;;5068484;28;20201;-81
2023/07/23 07:27:32;;;;;;;4.20;1.07;;;22.40;80.60;;;;;;5095917;28;20203;-80
2023/07/23 07:29:58;;;;;;;3.30;1.40;;;22.90;78.50;;;;;;5079289;28;20419;-80
2023/07/23 07:32:23;;;;;;;3.20;1.10;;;22.90;77.50;;;;;;5081430;28;20660;-80
2023/07/23 07:34:49;;;;;;;6.27;1.50;;;23.10;76.40;;;;;;5076455;28;20418;-81
2023/07/23 07:37:14;;;;;;;3.93;1.40;;;22.80;78.20;;;;;;5080354;28;20177;-81
2023/07/23 07:39:41;;;;;;;4.33;1.57;;;22.70;78.80;;;;;;5080653;28;20186;-81
2023/07/23 07:42:06;;;;;;;3.00;1.73;;;22.60;79.40;;;;;;5079225;28;20181;-81
2023/07/23 07:44:32;;;;;;;4.10;1.60;;;22.90;77.60;;;;;;5079675;28;20774;-81
2023/07/23 07:46:58;;;;;;;3.30;1.53;;;23.40;78.10;;;;;;5082551;28;20387;-82
2023/07/23 07:49:24;;;;;;;2.80;1.50;;;23.90;77.70;;;;;;5068079;28;20185;-80
2023/07/23 07:51:49;;;;;;;3.20;1.63;;;24.10;76.80;;;;;;5080728;28;20254;-82
2023/07/23 07:54:15;;;;;;;2.30;1.10;;;24.20;76.30;;;;;;5092663;28;20216;-80
2023/07/23 07:56:43;;;;;;;7.47;2.43;;;24.20;76.10;;;;;;5075764;28;20201;-81
2023/07/23 07:59:11;;;;;;;3.10;1.50;;;24.00;76.20;;;;;;5084902;28;20165;-82
2023/07/23 08:01:37;;;;;;;3.13;1.20;;;24.70;75.30;;;;;;5065987;28;20414;-82
2023/07/23 08:04:06;;;;;;;2.60;1.53;;;25.30;73.10;;;;;;5077892;28;20458;-82
2023/07/23 08:06:34;;;;;;;1.93;0.90;;;25.00;74.20;;;;;;5079242;28;20185;-82
2023/07/23 08:09:02;;;;;;;2.87;1.23;;;24.80;73.80;;;;;;5062229;28;20498;-82
2023/07/23 08:11:29;;;;;;;4.23;1.77;;;24.30;75.40;;;;;;5078829;28;20434;-82
2023/07/23 08:13:55;;;;;;;3.50;1.10;;;24.40;75.00;;;;;;5088380;28;20482;-81
2023/07/23 08:16:21;;;;;;;2.07;1.10;;;24.80;74.40;;;;;;5077958;23;20979;-70
2023/07/23 08:18:47;;;;;;;4.07;1.17;;;25.00;74.00;;;;;;5068167;28;20419;-70
2023/07/23 08:21:13;;;;;;;4.43;1.67;;;25.00;74.40;;;;;;5072109;28;20257;-70
2023/07/23 08:23:39;;;;;;;5.77;1.20;;;25.60;72.90;;;;;;5071907;28;20826;-70
2023/07/23 08:26:06;;;;;;;5.27;1.07;;;25.30;73.20;;;;;;5072625;28;20199;-71
2023/07/23 08:28:37;;;;;;;3.27;1.43;;;25.40;72.00;;;;;;5072464;28;20575;-71
2023/07/23 08:31:03;;;;;;;3.37;1.70;;;24.90;73.60;;;;;;5072399;28;20410;-71
2023/07/23 08:33:32;;;;;;;2.33;1.20;;;24.50;74.00;;;;;;5061217;28;20830;-71
2023/07/23 08:35:59;;;;;;;2.17;1.03;;;24.40;75.00;;;;;;5059548;28;20180;-71
2023/07/23 08:38:26;;;;;;;10.60;1.20;;;24.70;74.80;;;;;;5070098;28;20435;-71
2023/07/23 08:41:03;;;;;;;1.80;0.97;;;24.20;75.70;;;;;;5066707;28;20882;-71
2023/07/23 08:43:56;;;;;;;2.90;1.30;;;24.00;76.10;;;;;;5066639;28;21068;-71
2023/07/23 08:46:22;;;;;;;4.40;1.30;;;23.80;76.10;;;;;;5068573;28;20506;-71
2023/07/23 08:49:03;;;;;;;3.17;1.77;;;23.90;76.60;;;;;;5072286;28;20501;-71
2023/07/23 08:51:40;;;;;;;3.77;1.33;;;24.30;75.40;;;;;;5071616;28;20180;-71
2023/07/23 08:54:06;;;;;;;3.10;1.30;;;24.20;75.70;;;;;;5071138;28;20466;-71
2023/07/23 08:56:33;;;;;;;1.93;0.77;;;24.40;75.80;;;;;;5071830;28;20411;-71
2023/07/23 08:59:02;;;;;;;2.30;1.07;;;25.20;74.80;;;;;;5071524;28;20982;-72
2023/07/23 09:01:32;;;;;;;2.40;1.13;;;25.50;72.90;;;;;;5066478;28;20494;-71
2023/07/23 09:03:58;;;;;;;1.87;0.97;;;25.40;73.90;;;;;;5062892;28;20519;-71
2023/07/23 09:06:26;;;;;;;2.80;0.90;;;25.90;71.80;;;;;;5068708;28;20419;-71
2023/07/23 09:08:52;;;;;;;2.60;1.10;;;26.60;70.90;;;;;;5061913;28;20427;-72
2023/07/23 09:11:17;;;;;;;2.10;1.20;;;26.30;70.50;;;;;;5071614;28;20434;-71
2023/07/23 09:13:43;;;;;;;2.20;0.97;;;26.10;70.60;;;;;;5070821;28;20623;-71
2023/07/23 09:16:09;;;;;;;2.30;1.20;;;26.20;70.20;;;;;;5071209;28;20196;-72
2023/07/23 09:18:40;;;;;;;1.77;0.90;;;25.80;69.80;;;;;;5071540;28;20544;-72
2023/07/23 09:21:06;;;;;;;1.80;1.27;;;25.40;71.20;;;;;;5071096;28;20255;-71
2023/07/23 09:23:33;;;;;;;3.40;1.10;;;25.20;71.50;;;;;;5070749;28;20426;-70
2023/07/23 09:25:59;;;;;;;2.10;1.10;;;25.00;71.30;;;;;;5071440;28;20446;-71
2023/07/23 09:28:26;;;;;;;2.10;1.00;;;25.10;71.50;;;;;;5071535;28;20434;-72
2023/07/23 09:30:56;;;;;;;2.20;0.97;;;25.30;70.40;;;;;;5071165;28;20912;-72
2023/07/23 09:33:34;;;;;;;1.80;0.93;;;25.40;70.40;;;;;;5071044;28;20545;-72
2023/07/23 09:36:01;;;;;;;2.63;1.10;;;25.50;70.30;;;;;;5070720;28;20467;-71
2023/07/23 09:38:28;;;;;;;3.47;1.17;;;25.20;69.00;;;;;;5071439;28;20415;-71
2023/07/23 09:40:55;;;;;;;3.40;1.23;;;25.00;68.70;;;;;;5071660;28;20417;-71
2023/07/23 09:43:24;;;;;;;2.63;1.20;;;24.90;69.00;;;;;;5071018;28;20415;-71
2023/07/23 09:45:51;;;;;;;2.20;1.13;;;24.90;70.00;;;;;;5070745;28;20415;-71
2023/07/23 09:48:17;;;;;;;4.40;1.30;;;24.60;69.30;;;;;;5071016;28;20445;-71
2023/07/23 09:50:44;;;;;;;2.70;1.33;;;24.80;70.00;;;;;;5070681;28;20418;-70
2023/07/23 09:53:12;;;;;;;2.53;0.97;;;25.20;68.70;;;;;;5066679;28;20462;-72
2023/07/23 09:55:39;;;;;;;1.90;1.00;;;25.30;69.30;;;;;;5070524;28;20421;-72
2023/07/23 09:58:06;;;;;;;2.57;1.30;;;25.50;69.30;;;;;;5071059;28;20928;-72
2023/07/23 10:00:33;;;;;;;2.43;1.23;;;25.70;68.90;;;;;;5063694;28;20420;-71
2023/07/23 10:03:00;;;;;;;2.37;1.37;;;26.40;68.80;;;;;;5051870;28;20429;-71
2023/07/23 10:05:26;;;;;;;2.83;1.00;;;26.80;67.00;;;;;;5069564;28;20217;-72
2023/07/23 10:07:53;;;;;;;2.23;1.00;;;26.70;67.40;;;;;;5069343;28;20707;-72
2023/07/23 10:10:19;;;;;;;6.43;1.20;;;27.10;65.30;;;;;;5063327;28;20660;-72
2023/07/23 10:12:46;;;;;;;3.53;1.45;;;27.40;64.30;;;;;;5070878;28;20204;-72
2023/07/23 10:15:12;;;;;;;3.60;1.27;;;27.60;63.90;;;;;;5070187;28;20192;-72
2023/07/23 10:17:42;;;;;;;7.22;1.67;;;27.70;64.40;;;;;;5062252;28;20519;-72
2023/07/23 10:20:11;;;;;;;2.35;1.13;;;27.70;64.90;;;;;;5064462;28;20260;-72
2023/07/23 10:22:39;;;;;;;5.60;1.40;;;27.90;63.30;;;;;;5070409;28;20176;-72
2023/07/23 10:25:25;;;;;;;2.72;1.10;;;28.10;62.20;;;;;;5070996;28;20188;-72
2023/07/23 10:27:59;;;;;;;6.90;1.13;;;27.30;63.20;;;;;;5071699;28;20187;-72
2023/07/23 10:30:25;;;;;;;2.13;0.93;;;27.10;65.00;;;;;;5071653;28;20230;-72
2023/07/23 10:33:09;;;;;;;12.23;1.33;;;26.80;64.50;;;;;;5071803;28;20688;-72
2023/07/23 10:35:53;;;;;;;3.30;1.30;;;26.60;67.30;;;;;;5058305;28;20195;-72
2023/07/23 10:38:20;;;;;;;8.30;1.20;;;26.50;66.00;;;;;;5072503;28;20263;-72
2023/07/23 10:40:46;;;;;;;3.80;1.30;;;26.50;65.50;;;;;;5071327;28;20411;-72
2023/07/23 10:43:13;;;;;;;1.93;1.20;;;26.50;66.60;;;;;;5060269;28;20427;-72
2023/07/23 10:45:44;;;;;;;2.37;1.20;;;26.60;65.60;;;;;;5070389;28;20419;-72
2023/07/23 10:48:16;;;;;;;2.67;1.20;;;27.00;64.00;;;;;;5070588;28;20419;-72
2023/07/23 10:51:02;;;;;;;2.80;1.40;;;26.90;64.10;;;;;;5069871;28;20936;-72
2023/07/23 10:53:31;;;;;;;3.00;1.63;;;26.90;63.80;;;;;;5059105;28;21004;-71
2023/07/23 10:56:00;;;;;;;3.43;1.60;;;26.60;64.70;;;;;;5065238;28;20439;-71
2023/07/23 10:58:27;;;;;;;2.20;1.00;;;26.60;63.70;;;;;;5069200;28;20514;-72
2023/07/23 11:00:57;;;;;;;2.47;1.17;;;26.60;64.30;;;;;;5065838;28;20426;-72
2023/07/23 11:03:25;;;;;;;3.63;1.50;;;26.90;63.90;;;;;;5067328;28;20418;-72
2023/07/23 11:05:52;;;;;;;2.73;1.07;;;27.10;63.30;;;;;;5069119;28;20418;-72
2023/07/23 11:08:20;;;;;;;3.00;1.57;;;27.20;62.70;;;;;;5067790;28;20420;-72
2023/07/23 11:11:03;;;;;;;8.20;1.90;;;27.10;61.40;;;;;;5069747;28;20471;-71
2023/07/23 11:13:32;;;;;;;7.17;1.70;;;27.10;59.80;;;;;;5068406;28;20464;-71
2023/07/23 11:15:58;;;;;;;5.60;2.10;;;26.90;59.30;;;;;;5072650;28;20503;-72
2023/07/23 11:18:23;;;;;;;2.40;1.40;;;26.60;60.50;;;;;;5072517;28;20931;-72
2023/07/23 11:20:54;;;;;;;3.07;1.50;;;26.80;61.30;;;;;;5059083;28;20510;-71
2023/07/23 11:23:23;;;;;;;2.67;1.50;;;26.80;61.40;;;;;;5072129;28;20185;-72
2023/07/23 11:25:49;;;;;;;2.60;1.20;;;26.90;60.80;;;;;;5059301;28;20896;-71
2023/07/23 11:28:23;;;;;;;3.20;1.60;;;26.80;60.50;;;;;;5071304;28;20453;-70
2023/07/23 11:30:52;;;;;;;4.17;1.20;;;27.10;63.00;;;;;;5070864;28;20880;-68
2023/07/23 11:33:20;;;;;;;5.50;1.70;;;27.40;60.10;;;;;;5065314;28;20466;-70
2023/07/23 11:35:45;;;;;;;5.90;1.53;;;27.20;59.30;;;;;;5071509;28;20507;-71
2023/07/23 11:38:11;;;;;;;3.17;1.53;;;27.30;59.40;;;;;;5072061;28;20506;-71
2023/07/23 11:40:37;;;;;;;3.60;1.90;;;27.40;58.90;;;;;;5072248;28;20203;-71
2023/07/23 11:43:04;;;;;;;5.80;2.20;;;27.50;58.90;;;;;;5054236;28;20220;-71
2023/07/23 11:45:30;;;;;;;3.07;1.70;;;27.20;59.60;;;;;;5071218;28;20513;-71
2023/07/23 11:47:55;;;;;;;3.00;1.30;;;27.00;58.30;;;;;;5071839;28;20497;-71
2023/07/23 11:50:22;;;;;;;3.30;1.60;;;26.90;58.20;;;;;;5071492;28;20287;-71
2023/07/23 11:52:49;;;;;;;3.10;1.30;;;26.60;59.40;;;;;;5071855;28;20203;-70
2023/07/23 11:55:22;;;;;;;5.03;1.70;;;26.50;60.50;;;;;;5071633;28;20415;-71
2023/07/23 11:57:56;;;;;;;2.10;1.10;;;26.60;61.70;;;;;;5072128;28;20403;-71
2023/07/23 12:00:30;;;;;;;6.67;1.60;;;26.80;60.40;;;;;;5071794;28;20461;-71
2023/07/23 12:02:57;;;;;;;3.23;1.87;;;26.60;60.70;;;;;;5071695;28;20908;-71
2023/07/23 12:05:23;;;;;;;4.00;1.63;;;26.70;61.10;;;;;;5061940;28;20738;-72
2023/07/23 12:07:51;;;;;;;2.53;1.30;;;26.50;61.70;;;;;;5069642;28;20976;-72
2023/07/23 12:10:17;;;;;;;2.43;1.37;;;26.60;60.10;;;;;;5063512;28;20187;-71
2023/07/23 12:12:49;;;;;;;5.60;1.70;;;26.50;61.70;;;;;;5071001;28;20463;-73
2023/07/23 12:15:16;;;;;;;3.00;1.47;;;26.70;59.70;;;;;;5051551;28;20193;-70
2023/07/23 12:17:43;;;;;;;9.07;1.57;;;26.60;59.70;;;;;;5058863;28;20418;-71
2023/07/23 12:20:10;;;;;;;3.00;1.57;;;26.60;60.30;;;;;;5061049;28;20451;-71
2023/07/23 12:23:01;;;;;;;3.27;1.93;;;26.50;59.40;;;;;;5069874;28;20420;-70
2023/07/23 12:25:27;;;;;;;2.27;1.00;;;26.60;60.30;;;;;;5069787;28;20423;-70
2023/07/23 12:27:54;;;;;;;3.23;1.63;;;26.40;60.20;;;;;;5072842;28;20469;-70
2023/07/23 12:30:19;;;;;;;2.57;1.33;;;26.20;61.60;;;;;;5071801;28;20184;-72
2023/07/23 12:32:46;;;;;;;2.10;1.20;;;26.20;62.70;;;;;;5064962;28;20457;-72
2023/07/23 12:35:12;;;;;;;3.57;1.67;;;26.00;63.20;;;;;;5062555;28;20226;-72
2023/07/23 12:37:38;;;;;;;3.63;2.10;;;25.90;62.70;;;;;;5054633;28;20411;-73
2023/07/23 12:40:05;;;;;;;2.53;1.43;;;25.80;60.80;;;;;;5068332;28;20528;-72
2023/07/23 12:42:32;;;;;;;2.93;1.27;;;25.80;62.10;;;;;;5071797;28;20630;-72
2023/07/23 12:44:58;;;;;;;2.63;1.37;;;25.70;62.00;;;;;;5071442;28;20423;-72